createdAt,value
2024-04-18T00:00:40.910Z,718.00
2024-04-18T00:01:40.889Z,717.00
2024-04-18T00:02:40.938Z,717.00
2024-04-18T00:03:41.035Z,722.00
2024-04-18T00:04:41.160Z,714.00
2024-04-18T00:05:41.046Z,720.00
2024-04-18T00:06:41.118Z,714.00
2024-04-18T00:07:41.132Z,711.00
2024-04-18T00:08:41.143Z,710.00
2024-04-18T00:09:41.221Z,711.00
2024-04-18T00:10:41.253Z,709.00
2024-04-18T00:11:43.071Z,711.00
2024-04-18T00:12:41.293Z,710.00
2024-04-18T00:13:41.253Z,709.00
2024-04-18T00:14:41.254Z,716.00
2024-04-18T00:15:41.285Z,715.00
2024-04-18T00:16:41.267Z,716.00
2024-04-18T00:17:41.311Z,711.00
2024-04-18T00:18:41.294Z,711.00
2024-04-18T00:19:41.258Z,712.00
2024-04-18T00:20:41.289Z,713.00
2024-04-18T00:21:41.303Z,707.00
2024-04-18T00:22:41.269Z,716.00
2024-04-18T00:23:41.266Z,713.00
2024-04-18T00:24:41.300Z,711.00
2024-04-18T00:25:41.286Z,699.00
2024-04-18T00:26:41.267Z,705.00
2024-04-18T00:27:41.379Z,709.00
2024-04-18T00:28:41.280Z,702.00
2024-04-18T00:29:41.280Z,705.00
2024-04-18T00:30:41.459Z,703.00
2024-04-18T00:31:41.310Z,705.00
2024-04-18T00:32:41.393Z,712.00
2024-04-18T00:33:41.325Z,707.00
2024-04-18T00:34:41.284Z,702.00
2024-04-18T00:35:41.309Z,707.00
2024-04-18T00:36:41.361Z,708.00
2024-04-18T00:37:41.300Z,712.00
2024-04-18T00:38:41.289Z,700.00
2024-04-18T00:39:41.318Z,704.00
2024-04-18T00:40:41.303Z,699.00
2024-04-18T00:41:41.293Z,704.00
2024-04-18T00:42:41.358Z,706.00
2024-04-18T00:43:41.284Z,700.00
2024-04-18T00:44:41.295Z,707.00
2024-04-18T00:45:41.355Z,699.00
2024-04-18T00:46:41.311Z,704.00
2024-04-18T00:47:41.398Z,691.00
2024-04-18T00:48:41.348Z,692.00
2024-04-18T00:49:41.305Z,701.00
2024-04-18T00:50:41.287Z,701.00
2024-04-18T00:51:41.326Z,701.00
2024-04-18T00:52:41.324Z,700.00
2024-04-18T00:53:41.297Z,695.00
2024-04-18T00:54:41.369Z,704.00
2024-04-18T00:55:41.301Z,697.00
2024-04-18T00:56:41.313Z,697.00
2024-04-18T00:57:41.495Z,693.00
2024-04-18T00:58:41.344Z,690.00
2024-04-18T00:59:41.396Z,698.00
2024-04-18T01:00:41.499Z,693.00
2024-04-18T01:01:41.476Z,699.00
2024-04-18T01:02:41.531Z,695.00
2024-04-18T01:03:41.741Z,690.00
2024-04-18T01:04:41.791Z,693.00
2024-04-18T01:05:41.648Z,697.00
2024-04-18T01:06:41.716Z,688.00
2024-04-18T01:07:41.739Z,696.00
2024-04-18T01:08:41.797Z,683.00
2024-04-18T01:09:41.906Z,694.00
2024-04-18T01:10:41.861Z,699.00
2024-04-18T01:11:42.013Z,692.00
2024-04-18T01:12:42.000Z,689.00
2024-04-18T01:13:41.988Z,687.00
2024-04-18T01:14:42.041Z,699.00
2024-04-18T01:15:42.105Z,698.00
2024-04-18T01:16:42.104Z,692.00
2024-04-18T01:17:42.227Z,695.00
2024-04-18T01:18:42.268Z,686.00
2024-04-18T01:19:42.223Z,688.00
2024-04-18T01:20:42.274Z,688.00
2024-04-18T01:21:42.424Z,686.00
2024-04-18T01:22:42.348Z,689.00
2024-04-18T01:23:42.430Z,683.00
2024-04-18T01:24:42.496Z,690.00
2024-04-18T01:25:42.490Z,689.00
2024-04-18T01:26:42.532Z,690.00
2024-04-18T01:27:42.683Z,694.00
2024-04-18T01:28:42.631Z,694.00
2024-04-18T01:29:42.651Z,682.00
2024-04-18T01:30:42.763Z,694.00
2024-04-18T01:31:42.752Z,691.00
2024-04-18T01:32:42.885Z,683.00
2024-04-18T01:33:42.974Z,685.00
2024-04-18T01:34:42.955Z,669.00
2024-04-18T01:35:42.949Z,680.00
2024-04-18T01:36:43.070Z,675.00
2024-04-18T01:37:43.050Z,680.00
2024-04-18T01:38:43.086Z,680.00
2024-04-18T01:39:43.261Z,685.00
2024-04-18T01:40:43.195Z,678.00
2024-04-18T01:41:43.234Z,682.00
2024-04-18T01:42:43.383Z,680.00
2024-04-18T01:43:43.319Z,679.00
2024-04-18T01:44:43.408Z,678.00
2024-04-18T01:45:43.458Z,675.00
2024-04-18T01:46:43.477Z,674.00
2024-04-18T01:47:43.529Z,681.00
2024-04-18T01:48:43.662Z,671.00
2024-04-18T01:49:43.584Z,673.00
2024-04-18T01:50:43.629Z,679.00
2024-04-18T01:51:43.730Z,681.00
2024-04-18T01:52:43.717Z,673.00
2024-04-18T01:53:43.774Z,683.00
2024-04-18T01:54:43.885Z,680.00
2024-04-18T01:55:43.862Z,671.00
2024-04-18T01:56:43.919Z,679.00
2024-04-18T01:57:44.067Z,670.00
2024-04-18T01:58:43.992Z,682.00
2024-04-18T01:59:44.059Z,668.00
2024-04-18T02:00:44.156Z,679.00
2024-04-18T02:01:44.145Z,678.00
2024-04-18T02:02:44.205Z,668.00
2024-04-18T02:03:44.353Z,671.00
2024-04-18T02:04:44.304Z,671.00
2024-04-18T02:05:44.471Z,677.00
2024-04-18T02:06:44.494Z,665.00
2024-04-18T02:07:44.602Z,668.00
2024-04-18T02:08:44.517Z,664.00
2024-04-18T02:09:44.641Z,669.00
2024-04-18T02:10:44.665Z,674.00
2024-04-18T02:11:44.643Z,667.00
2024-04-18T02:12:44.810Z,666.00
2024-04-18T02:13:44.746Z,667.00
2024-04-18T02:14:44.813Z,671.00
2024-04-18T02:15:45.096Z,665.00
2024-04-18T02:16:44.931Z,668.00
2024-04-18T02:17:45.025Z,665.00
2024-04-18T02:18:45.030Z,665.00
2024-04-18T02:19:45.046Z,665.00
2024-04-18T02:20:45.113Z,665.00
2024-04-18T02:21:45.201Z,665.00
2024-04-18T02:22:45.202Z,664.00
2024-04-18T02:23:45.267Z,667.00
2024-04-18T02:24:45.325Z,666.00
2024-04-18T02:25:45.378Z,664.00
2024-04-18T02:26:45.432Z,664.00
2024-04-18T02:27:45.632Z,663.00
2024-04-18T02:28:45.542Z,666.00
2024-04-18T02:29:45.592Z,664.00
2024-04-18T02:30:45.747Z,665.00
2024-04-18T02:31:45.750Z,666.00
2024-04-18T02:32:45.812Z,666.00
2024-04-18T02:33:45.847Z,662.00
2024-04-18T02:34:45.853Z,664.00
2024-04-18T02:35:45.905Z,666.00
2024-04-18T02:36:46.016Z,662.00
2024-04-18T02:37:46.006Z,668.00
2024-04-18T02:38:46.067Z,662.00
2024-04-18T02:39:46.139Z,662.00
2024-04-18T02:40:46.169Z,662.00
2024-04-18T02:41:46.247Z,664.00
2024-04-18T02:42:46.319Z,663.00
2024-04-18T02:43:46.316Z,667.00
2024-04-18T02:44:46.360Z,664.00
2024-04-18T02:45:46.610Z,665.00
2024-04-18T02:46:46.484Z,663.00
2024-04-18T02:47:46.651Z,661.00
2024-04-18T02:48:46.635Z,662.00
2024-04-18T02:49:46.655Z,664.00
2024-04-18T02:50:46.703Z,662.00
2024-04-18T02:51:46.844Z,661.00
2024-04-18T02:52:46.818Z,661.00
2024-04-18T02:53:46.884Z,662.00
2024-04-18T02:54:47.113Z,662.00
2024-04-18T02:55:47.057Z,659.00
2024-04-18T02:56:47.052Z,663.00
2024-04-18T02:57:47.233Z,660.00
2024-04-18T02:58:47.154Z,662.00
2024-04-18T02:59:47.229Z,660.00
2024-04-18T03:00:47.390Z,662.00
2024-04-18T03:01:47.364Z,661.00
2024-04-18T03:02:47.416Z,664.00
2024-04-18T03:03:47.576Z,657.00
2024-04-18T03:04:47.516Z,658.00
2024-04-18T03:05:47.560Z,665.00
2024-04-18T03:06:47.672Z,659.00
2024-04-18T03:07:47.679Z,663.00
2024-04-18T03:08:47.728Z,662.00
2024-04-18T03:09:47.951Z,661.00
2024-04-18T03:10:47.865Z,660.00
2024-04-18T03:11:47.916Z,660.00
2024-04-18T03:12:47.966Z,656.00
2024-04-18T03:13:47.991Z,658.00
2024-04-18T03:14:48.057Z,661.00
2024-04-18T03:15:48.344Z,658.00
2024-04-18T03:16:48.205Z,656.00
2024-04-18T03:17:48.893Z,660.00
2024-04-18T03:18:48.386Z,658.00
2024-04-18T03:19:48.368Z,660.00
2024-04-18T03:20:48.430Z,656.00
2024-04-18T03:21:48.518Z,657.00
2024-04-18T03:22:48.543Z,661.00
2024-04-18T03:23:48.612Z,656.00
2024-04-18T03:24:48.744Z,657.00
2024-04-18T03:25:48.727Z,658.00
2024-04-18T03:26:48.795Z,659.00
2024-04-18T03:27:48.918Z,656.00
2024-04-18T03:28:48.923Z,658.00
2024-04-18T03:29:48.953Z,659.00
2024-04-18T03:30:49.157Z,659.00
2024-04-18T03:31:49.179Z,658.00
2024-04-18T03:32:49.143Z,657.00
2024-04-18T03:33:49.296Z,658.00
2024-04-18T03:34:49.250Z,660.00
2024-04-18T03:35:49.301Z,658.00
2024-04-18T03:36:49.390Z,658.00
2024-04-18T03:37:49.400Z,656.00
2024-04-18T03:38:49.456Z,653.00
2024-04-18T03:39:49.618Z,657.00
2024-04-18T03:40:49.579Z,658.00
2024-04-18T03:41:49.616Z,659.00
2024-04-18T03:42:49.726Z,657.00
2024-04-18T03:43:49.741Z,655.00
2024-04-18T03:44:49.787Z,655.00
2024-04-18T03:45:49.916Z,654.00
2024-04-18T03:46:49.901Z,654.00
2024-04-18T03:47:50.079Z,653.00
2024-04-18T03:48:50.017Z,657.00
2024-04-18T03:49:50.066Z,659.00
2024-04-18T03:50:50.144Z,655.00
2024-04-18T03:51:50.279Z,651.00
2024-04-18T03:52:50.243Z,654.00
2024-04-18T03:53:50.305Z,653.00
2024-04-18T03:55:00.730Z,654.00
2024-04-18T03:55:51.377Z,654.00
2024-04-18T03:56:50.366Z,654.00
2024-04-18T03:57:50.407Z,654.00
2024-04-18T03:58:50.363Z,654.00
2024-04-18T03:59:50.371Z,655.00
2024-04-18T04:00:50.443Z,654.00
2024-04-18T04:01:50.378Z,653.00
2024-04-18T04:02:50.373Z,655.00
2024-04-18T04:03:50.512Z,655.00
2024-04-18T04:04:50.372Z,656.00
2024-04-18T04:05:50.418Z,654.00
2024-04-18T04:06:50.538Z,652.00
2024-04-18T04:07:50.527Z,652.00
2024-04-18T04:08:50.599Z,653.00
2024-04-18T04:09:50.663Z,652.00
2024-04-18T04:10:50.740Z,654.00
2024-04-18T04:11:50.749Z,651.00
2024-04-18T04:12:50.891Z,652.00
2024-04-18T04:13:50.889Z,652.00
2024-04-18T04:14:50.943Z,654.00
2024-04-18T04:15:51.315Z,656.00
2024-04-18T04:16:51.059Z,649.00
2024-04-18T04:17:51.199Z,650.00
2024-04-18T04:18:51.245Z,651.00
2024-04-18T04:19:51.237Z,652.00
2024-04-18T04:20:51.301Z,652.00
2024-04-18T04:21:51.451Z,652.00
2024-04-18T04:22:51.419Z,650.00
2024-04-18T04:23:51.502Z,649.00
2024-04-18T04:24:51.611Z,650.00
2024-04-18T04:25:51.608Z,649.00
2024-04-18T04:26:51.693Z,651.00
2024-04-18T04:27:51.746Z,651.00
2024-04-18T04:28:51.780Z,650.00
2024-04-18T04:29:51.833Z,649.00
2024-04-18T04:30:51.991Z,650.00
2024-04-18T04:31:52.450Z,652.00
2024-04-18T04:32:52.471Z,650.00
2024-04-18T04:33:52.145Z,650.00
2024-04-18T04:34:52.129Z,649.00
2024-04-18T04:35:52.184Z,651.00
2024-04-18T04:36:52.308Z,649.00
2024-04-18T04:37:52.313Z,650.00
2024-04-18T04:38:59.598Z,600.00
2024-04-18T04:39:59.633Z,600.00
2024-04-18T04:40:59.593Z,600.00
2024-04-18T04:41:59.597Z,600.00
2024-04-18T04:43:59.600Z,601.00
2024-04-18T04:44:59.596Z,601.00
2024-04-18T04:45:59.584Z,602.00
2024-04-18T04:46:59.585Z,600.00
2024-04-18T04:47:59.642Z,601.00
2024-04-18T04:48:59.710Z,607.00
2024-04-18T04:49:59.604Z,603.00
2024-04-18T04:50:59.729Z,606.00
2024-04-18T04:51:59.593Z,603.00
2024-04-18T04:52:59.595Z,603.00
2024-04-18T04:53:59.599Z,601.00
2024-04-18T04:54:59.620Z,601.00
2024-04-18T04:55:59.617Z,600.00
2024-04-18T04:56:59.603Z,600.00
2024-04-18T04:57:59.619Z,604.00
2024-04-18T04:58:59.601Z,601.00
2024-04-18T04:59:59.602Z,604.00
2024-04-18T05:00:59.663Z,601.00
2024-04-18T05:01:59.653Z,602.00
2024-04-18T05:02:59.740Z,603.00
2024-04-18T05:03:59.931Z,603.00
2024-04-18T05:04:59.772Z,602.00
2024-04-18T05:05:59.824Z,603.00
2024-04-18T05:06:59.869Z,605.00
2024-04-18T05:07:59.936Z,600.00
2024-04-18T05:09:00.003Z,603.00
2024-04-18T05:10:00.089Z,603.00
2024-04-18T05:11:00.162Z,606.00
2024-04-18T05:12:00.229Z,602.00
2024-04-18T05:13:00.238Z,604.00
2024-04-18T05:14:00.313Z,604.00
2024-04-18T05:15:00.403Z,602.00
2024-04-18T05:16:00.572Z,605.00
2024-04-18T05:17:00.532Z,602.00
2024-04-18T05:18:00.628Z,604.00
2024-04-18T05:19:00.644Z,604.00
2024-04-18T05:20:00.705Z,602.00
2024-04-18T05:21:00.804Z,603.00
2024-04-18T05:22:00.865Z,603.00
2024-04-18T05:23:00.904Z,607.00
2024-04-18T05:24:01.019Z,604.00
2024-04-18T05:25:01.045Z,608.00
2024-04-18T05:26:01.088Z,607.00
2024-04-18T05:27:01.232Z,603.00
2024-04-18T05:28:01.251Z,605.00
2024-04-18T05:29:01.303Z,604.00
2024-04-18T05:30:01.350Z,603.00
2024-04-18T05:31:01.536Z,605.00
2024-04-18T05:32:01.594Z,601.00
2024-04-18T05:33:01.603Z,606.00
2024-04-18T05:34:01.669Z,606.00
2024-04-18T05:35:01.786Z,603.00
2024-04-18T05:36:01.740Z,604.00
2024-04-18T05:37:03.109Z,603.00
2024-04-18T05:38:01.862Z,603.00
2024-04-18T05:39:01.936Z,602.00
2024-04-18T05:40:02.013Z,602.00
2024-04-18T05:41:02.076Z,601.00
2024-04-18T05:42:02.126Z,600.00
2024-04-18T05:43:02.249Z,605.00
2024-04-18T05:44:02.267Z,605.00
2024-04-18T05:45:02.322Z,602.00
2024-04-18T05:46:02.399Z,605.00
2024-04-18T05:47:02.467Z,605.00
2024-04-18T05:48:02.547Z,611.00
2024-04-18T05:49:02.587Z,616.00
2024-04-18T05:50:02.700Z,615.00
2024-04-18T05:51:02.703Z,619.00
2024-04-18T05:52:02.678Z,624.00
2024-04-18T05:53:02.753Z,630.00
2024-04-18T05:54:02.788Z,631.00
2024-04-18T05:55:02.851Z,636.00
2024-04-18T05:56:02.843Z,638.00
2024-04-18T05:57:03.229Z,640.00
2024-04-18T05:58:02.886Z,642.00
2024-04-18T05:59:02.905Z,645.00
2024-04-18T06:00:02.912Z,643.00
2024-04-18T06:01:03.154Z,649.00
2024-04-18T06:02:02.964Z,651.00
2024-04-18T06:03:03.253Z,657.00
2024-04-18T06:04:03.103Z,662.00
2024-04-18T06:05:02.977Z,660.00
2024-04-18T06:06:02.973Z,664.00
2024-04-18T06:07:02.992Z,664.00
2024-04-18T06:08:02.970Z,665.00
2024-04-18T06:09:02.981Z,682.00
2024-04-18T06:10:03.054Z,675.00
2024-04-18T06:11:03.254Z,685.00
2024-04-18T06:12:03.143Z,692.00
2024-04-18T06:13:03.118Z,686.00
2024-04-18T06:14:03.131Z,693.00
2024-04-18T06:15:03.167Z,702.00
2024-04-18T06:16:03.354Z,715.00
2024-04-18T06:17:03.285Z,718.00
2024-04-18T06:18:03.447Z,737.00
2024-04-18T06:19:03.386Z,732.00
2024-04-18T06:20:03.476Z,730.00
2024-04-18T06:21:03.572Z,729.00
2024-04-18T06:22:03.626Z,737.00
2024-04-18T06:23:03.694Z,734.00
2024-04-18T06:24:03.735Z,740.00
2024-04-18T06:25:03.830Z,739.00
2024-04-18T06:26:03.794Z,745.00
2024-04-18T06:27:03.862Z,744.00
2024-04-18T06:28:03.895Z,736.00
2024-04-18T06:29:03.958Z,738.00
2024-04-18T06:30:04.020Z,739.00
2024-04-18T06:31:04.154Z,743.00
2024-04-18T06:32:04.138Z,738.00
2024-04-18T06:33:04.350Z,743.00
2024-04-18T06:34:04.635Z,748.00
2024-04-18T06:35:04.364Z,740.00
2024-04-18T06:36:04.755Z,731.00
2024-04-18T06:37:07.860Z,733.00
2024-04-18T06:38:04.505Z,744.00
2024-04-18T06:39:04.502Z,745.00
2024-04-18T06:40:04.582Z,738.00
2024-04-18T06:41:04.519Z,729.00
2024-04-18T06:42:04.546Z,737.00
2024-04-18T06:43:04.532Z,738.00
2024-04-18T06:44:04.520Z,735.00
2024-04-18T06:45:04.534Z,726.00
2024-04-18T06:46:04.560Z,736.00
2024-04-18T06:47:04.577Z,735.00
2024-04-18T06:48:04.723Z,744.00
2024-04-18T06:49:04.541Z,751.00
2024-04-18T06:50:04.545Z,753.00
2024-04-18T06:51:04.542Z,757.00
2024-04-18T06:52:04.551Z,747.00
2024-04-18T06:53:04.554Z,746.00
2024-04-18T06:54:04.554Z,736.00
2024-04-18T06:55:04.594Z,741.00
2024-04-18T06:56:04.560Z,739.00
2024-04-18T06:57:04.783Z,732.00
2024-04-18T06:58:05.327Z,738.00
2024-04-18T06:59:04.553Z,735.00
2024-04-18T07:00:04.571Z,744.00
2024-04-18T07:01:04.597Z,748.00
2024-04-18T07:02:04.542Z,751.00
2024-04-18T07:03:04.587Z,746.00
2024-04-18T07:04:04.654Z,756.00
2024-04-18T07:05:04.635Z,754.00
2024-04-18T07:06:04.544Z,755.00
2024-04-18T07:07:04.551Z,761.00
2024-04-18T07:08:04.550Z,764.00
2024-04-18T07:09:04.550Z,767.00
2024-04-18T07:10:04.610Z,763.00
2024-04-18T07:11:04.589Z,755.00
2024-04-18T07:12:04.645Z,756.00
2024-04-18T07:13:04.728Z,767.00
2024-04-18T07:14:04.790Z,755.00
2024-04-18T07:15:04.768Z,755.00
2024-04-18T07:16:04.842Z,743.00
2024-04-18T07:17:05.238Z,730.00
2024-04-18T07:18:05.000Z,734.00
2024-04-18T07:19:04.985Z,726.00
2024-04-18T07:20:05.032Z,712.00
2024-04-18T07:21:05.072Z,703.00
2024-04-18T07:22:05.158Z,697.00
2024-04-18T07:23:05.171Z,691.00
2024-04-18T07:24:05.232Z,683.00
2024-04-18T07:25:05.286Z,665.00
2024-04-18T07:26:05.334Z,659.00
2024-04-18T07:27:05.796Z,660.00
2024-04-18T07:28:05.592Z,655.00
2024-04-18T07:29:05.505Z,653.00
2024-04-18T07:30:05.577Z,650.00
2024-04-18T07:31:05.628Z,648.00
2024-04-18T07:32:05.816Z,643.00
2024-04-18T07:33:05.836Z,638.00
2024-04-18T07:34:05.863Z,639.00
2024-04-18T07:35:05.931Z,637.00
2024-04-18T07:36:05.910Z,637.00
2024-04-18T07:37:06.008Z,631.00
2024-04-18T07:38:06.055Z,632.00
2024-04-18T07:39:06.103Z,632.00
2024-04-18T07:40:06.840Z,630.00
2024-04-18T07:41:06.208Z,633.00
2024-04-18T07:42:06.280Z,635.00
2024-04-18T07:43:06.299Z,637.00
2024-04-18T07:44:06.349Z,629.00
2024-04-18T07:45:06.391Z,631.00
2024-04-18T07:46:06.523Z,630.00
2024-04-18T07:47:06.584Z,634.00
2024-04-18T07:48:06.787Z,635.00
2024-04-18T07:49:06.614Z,640.00
2024-04-18T07:50:06.640Z,637.00
2024-04-18T07:51:06.764Z,641.00
2024-04-18T07:52:12.604Z,645.00
2024-04-18T07:53:10.029Z,646.00
2024-04-18T07:54:06.764Z,646.00
2024-04-18T07:55:07.307Z,647.00
2024-04-18T07:56:07.228Z,649.00
2024-04-18T07:57:07.132Z,652.00
2024-04-18T07:58:07.817Z,655.00
2024-04-18T07:59:07.273Z,662.00
2024-04-18T08:00:07.912Z,664.00
2024-04-18T08:01:08.448Z,665.00
2024-04-18T08:02:09.171Z,672.00
2024-04-18T08:03:08.803Z,687.00
2024-04-18T08:04:27.158Z,687.00
2024-04-18T08:05:10.246Z,687.00
2024-04-18T08:06:09.718Z,688.00
2024-04-18T08:07:09.905Z,688.00
2024-04-18T08:08:10.001Z,688.00
2024-04-18T08:09:09.598Z,688.00
2024-04-18T08:10:10.987Z,688.00
2024-04-18T08:11:26.685Z,689.00
2024-04-18T08:12:23.968Z,689.00
2024-04-18T08:13:10.925Z,689.00
2024-04-18T08:14:11.821Z,690.00
2024-04-18T08:15:11.938Z,690.00
2024-04-18T08:16:08.128Z,691.00
2024-04-18T08:17:07.185Z,704.00
2024-04-18T08:18:07.109Z,726.00
2024-04-18T08:19:07.092Z,750.00
2024-04-18T08:20:07.163Z,807.00
2024-04-18T08:21:07.105Z,858.00
2024-04-18T08:22:07.139Z,920.00
2024-04-18T08:23:07.349Z,910.00
2024-04-18T08:24:07.183Z,904.00
2024-04-18T08:25:07.120Z,888.00
2024-04-18T08:26:07.112Z,886.00
2024-04-18T08:27:07.385Z,858.00
2024-04-18T08:28:07.101Z,867.00
2024-04-18T08:29:07.181Z,851.00
2024-04-18T08:30:07.160Z,830.00
2024-04-18T08:31:07.135Z,801.00
2024-04-18T08:32:07.189Z,771.00
2024-04-18T08:33:07.222Z,746.00
2024-04-18T08:34:11.849Z,718.00
2024-04-18T08:35:08.117Z,701.00
2024-04-18T08:36:07.142Z,660.00
2024-04-18T08:37:07.126Z,652.00
2024-04-18T08:38:07.134Z,634.00
2024-04-18T08:39:07.170Z,627.00
2024-04-18T08:40:07.135Z,621.00
2024-04-18T08:41:07.132Z,615.00
2024-04-18T08:42:07.185Z,609.00
2024-04-18T08:43:07.134Z,602.00
2024-04-18T08:44:07.177Z,610.00
2024-04-18T08:45:07.151Z,635.00
2024-04-18T08:46:08.332Z,651.00
2024-04-18T08:47:07.224Z,658.00
2024-04-18T08:48:07.444Z,657.00
2024-04-18T08:49:07.411Z,661.00
2024-04-18T08:50:07.370Z,660.00
2024-04-18T08:51:07.492Z,651.00
2024-04-18T08:52:07.504Z,644.00
2024-04-18T08:53:07.577Z,641.00
2024-04-18T08:54:07.610Z,639.00
2024-04-18T08:55:07.582Z,635.00
2024-04-18T08:56:07.705Z,632.00
2024-04-18T08:57:07.728Z,630.00
2024-04-18T08:58:07.777Z,621.00
2024-04-18T08:59:07.855Z,621.00
2024-04-18T09:00:07.911Z,620.00
2024-04-18T09:01:08.038Z,617.00
2024-04-18T09:02:08.011Z,622.00
2024-04-18T09:03:08.072Z,622.00
2024-04-18T09:04:08.134Z,620.00
2024-04-18T09:05:08.159Z,624.00
2024-04-18T09:06:08.233Z,618.00
2024-04-18T09:07:08.242Z,611.00
2024-04-18T09:08:08.275Z,611.00
2024-04-18T09:09:08.350Z,608.00
2024-04-18T09:10:08.602Z,600.00
2024-04-18T09:11:08.604Z,602.00
2024-04-18T09:12:08.540Z,600.00
2024-04-18T09:13:08.539Z,600.00
2024-04-18T09:14:08.575Z,604.00
2024-04-18T09:15:08.627Z,600.00
2024-04-18T09:16:08.589Z,601.00
2024-04-18T09:17:08.623Z,600.00
2024-04-18T09:18:08.810Z,600.00
2024-04-18T09:19:09.378Z,604.00
2024-04-18T09:20:08.717Z,604.00
2024-04-18T09:21:08.833Z,600.00
2024-04-18T09:22:08.833Z,602.00
2024-04-18T09:23:08.950Z,602.00
2024-04-18T09:24:09.022Z,600.00
2024-04-18T09:25:09.078Z,603.00
2024-04-18T09:26:09.090Z,600.00
2024-04-18T09:27:09.153Z,600.00
2024-04-18T09:28:09.159Z,600.00
2024-04-18T09:29:09.185Z,604.00
2024-04-18T09:30:09.250Z,603.00
2024-04-18T09:31:09.190Z,602.00
2024-04-18T09:32:09.333Z,602.00
2024-04-18T09:33:09.490Z,599.00
2024-04-18T09:34:09.443Z,600.00
2024-04-18T09:35:09.337Z,605.00
2024-04-18T09:36:09.416Z,602.00
2024-04-18T09:37:09.372Z,603.00
2024-04-18T09:38:10.649Z,603.00
2024-04-18T09:39:09.523Z,607.00
2024-04-18T09:40:09.557Z,607.00
2024-04-18T09:41:09.609Z,609.00
2024-04-18T09:42:09.885Z,606.00
2024-04-18T09:43:09.772Z,611.00
2024-04-18T09:44:09.686Z,610.00
2024-04-18T09:45:09.771Z,616.00
2024-04-18T09:46:09.861Z,617.00
2024-04-18T09:47:09.823Z,617.00
2024-04-18T09:48:10.000Z,621.00
2024-04-18T09:49:09.820Z,623.00
2024-04-18T09:50:09.811Z,622.00
2024-04-18T09:51:09.831Z,623.00
2024-04-18T09:52:10.381Z,624.00
2024-04-18T09:53:09.851Z,623.00
2024-04-18T09:54:09.986Z,625.00
2024-04-18T09:55:09.977Z,625.00
2024-04-18T09:56:09.917Z,628.00
2024-04-18T09:57:10.860Z,628.00
2024-04-18T09:58:09.996Z,626.00
2024-04-18T09:59:09.975Z,630.00
2024-04-18T10:00:10.157Z,631.00
2024-04-18T10:01:10.241Z,634.00
2024-04-18T10:02:10.454Z,634.00
2024-04-18T10:03:10.357Z,635.00
2024-04-18T10:04:10.428Z,638.00
2024-04-18T10:05:10.444Z,640.00
2024-04-18T10:06:10.528Z,639.00
2024-04-18T10:07:10.529Z,637.00
2024-04-18T10:08:10.599Z,643.00
2024-04-18T10:09:10.727Z,643.00
2024-04-18T10:10:10.813Z,640.00
2024-04-18T10:11:10.834Z,644.00
2024-04-18T10:12:10.928Z,644.00
2024-04-18T10:13:10.940Z,646.00
2024-04-18T10:14:11.010Z,642.00
2024-04-18T10:15:11.113Z,647.00
2024-04-18T10:16:11.907Z,646.00
2024-04-18T10:17:11.274Z,650.00
2024-04-18T10:18:12.919Z,648.00
2024-04-18T10:19:11.514Z,649.00
2024-04-18T10:20:12.330Z,648.00
2024-04-18T10:21:11.499Z,651.00
2024-04-18T10:22:23.336Z,655.00
2024-04-18T10:23:12.575Z,642.00
2024-04-18T10:24:11.690Z,636.00
2024-04-18T10:25:11.557Z,627.00
2024-04-18T10:26:11.573Z,622.00
2024-04-18T10:27:11.713Z,627.00
2024-04-18T10:28:11.696Z,620.00
2024-04-18T10:29:11.747Z,617.00
2024-04-18T10:30:11.845Z,615.00
2024-04-18T10:31:12.181Z,617.00
2024-04-18T10:32:11.948Z,604.00
2024-04-18T10:33:12.199Z,613.00
2024-04-18T10:34:12.104Z,614.00
2024-04-18T10:35:12.232Z,632.00
2024-04-18T10:36:12.240Z,634.00
2024-04-18T10:37:12.283Z,633.00
2024-04-18T10:38:12.355Z,638.00
2024-04-18T10:39:12.372Z,643.00
2024-04-18T10:40:12.433Z,644.00
2024-04-18T10:41:12.504Z,654.00
2024-04-18T10:42:12.569Z,656.00
2024-04-18T10:43:14.256Z,661.00
2024-04-18T10:44:12.538Z,687.00
2024-04-18T10:45:12.647Z,702.00
2024-04-18T10:46:12.538Z,717.00
2024-04-18T10:47:12.533Z,712.00
2024-04-18T10:48:12.707Z,723.00
2024-04-18T10:49:12.680Z,728.00
2024-04-18T10:50:12.549Z,749.00
2024-04-18T10:51:12.563Z,792.00
2024-04-18T10:52:12.567Z,806.00
2024-04-18T10:53:12.544Z,821.00
2024-04-18T10:54:12.566Z,851.00
2024-04-18T10:55:12.539Z,897.00
2024-04-18T10:56:12.559Z,914.00
2024-04-18T10:57:12.562Z,944.00
2024-04-18T10:58:12.553Z,965.00
2024-04-18T10:59:12.546Z,975.00
2024-04-18T11:00:12.657Z,1000.00
2024-04-18T11:01:12.574Z,1010.00
2024-04-18T11:02:12.870Z,1020.00
2024-04-18T11:03:12.599Z,1021.00
2024-04-18T11:04:12.641Z,1033.00
2024-04-18T11:05:12.561Z,1040.00
2024-04-18T11:06:12.592Z,1052.00
2024-04-18T11:07:12.639Z,1064.00
2024-04-18T11:08:12.608Z,1078.00
2024-04-18T11:09:12.591Z,1090.00
2024-04-18T11:10:12.658Z,1091.00
2024-04-18T11:11:12.649Z,1098.00
2024-04-18T11:12:13.367Z,1103.00
2024-04-18T11:13:12.579Z,1111.00
2024-04-18T11:14:14.128Z,1103.00
2024-04-18T11:15:12.595Z,1099.00
2024-04-18T11:16:12.778Z,1083.00
2024-04-18T11:17:12.900Z,1062.00
2024-04-18T11:18:12.757Z,1034.00
2024-04-18T11:19:12.693Z,1000.00
2024-04-18T11:20:12.623Z,984.00
2024-04-18T11:21:12.670Z,998.00
2024-04-18T11:22:12.974Z,983.00
2024-04-18T11:23:15.716Z,978.00
2024-04-18T11:24:12.674Z,968.00
2024-04-18T11:25:12.665Z,981.00
2024-04-18T11:26:12.682Z,967.00
2024-04-18T11:27:12.663Z,962.00
2024-04-18T11:28:12.685Z,952.00
2024-04-18T11:29:12.636Z,939.00
2024-04-18T11:30:12.670Z,925.00
2024-04-18T11:31:12.654Z,936.00
2024-04-18T11:32:12.721Z,924.00
2024-04-18T11:33:12.892Z,911.00
2024-04-18T11:34:12.710Z,916.00
2024-04-18T11:35:17.357Z,902.00
2024-04-18T11:36:13.773Z,903.00
2024-04-18T11:37:12.714Z,893.00
2024-04-18T11:38:12.683Z,870.00
2024-04-18T11:39:12.729Z,859.00
2024-04-18T11:40:12.725Z,831.00
2024-04-18T11:41:12.679Z,828.00
2024-04-18T11:42:12.721Z,821.00
2024-04-18T11:43:12.701Z,805.00
2024-04-18T11:44:12.689Z,793.00
2024-04-18T11:45:12.775Z,768.00
2024-04-18T11:46:12.689Z,736.00
2024-04-18T11:47:12.742Z,733.00
2024-04-18T11:48:12.812Z,699.00
2024-04-18T11:49:12.751Z,694.00
2024-04-18T11:50:12.708Z,679.00
2024-04-18T11:51:12.733Z,669.00
2024-04-18T11:52:12.722Z,669.00
2024-04-18T11:53:12.704Z,666.00
2024-04-18T11:54:12.840Z,661.00
2024-04-18T11:55:12.806Z,659.00
2024-04-18T11:56:12.854Z,659.00
2024-04-18T11:57:12.940Z,658.00
2024-04-18T11:58:12.987Z,657.00
2024-04-18T11:59:13.041Z,654.00
2024-04-18T12:00:13.117Z,655.00
2024-04-18T12:01:13.197Z,657.00
2024-04-18T12:02:13.226Z,658.00
2024-04-18T12:03:13.329Z,662.00
2024-04-18T12:04:13.433Z,665.00
2024-04-18T12:05:13.389Z,674.00
2024-04-18T12:06:13.461Z,665.00
2024-04-18T12:07:13.477Z,668.00
2024-04-18T12:08:13.522Z,662.00
2024-04-18T12:09:13.618Z,656.00
2024-04-18T12:10:13.589Z,647.00
2024-04-18T12:11:13.732Z,657.00
2024-04-18T12:12:13.693Z,671.00
2024-04-18T12:13:13.703Z,697.00
2024-04-18T12:14:13.744Z,716.00
2024-04-18T12:15:13.986Z,717.00
2024-04-18T12:16:13.881Z,731.00
2024-04-18T12:17:13.880Z,728.00
2024-04-18T12:18:13.978Z,743.00
2024-04-18T12:19:13.978Z,747.00
2024-04-18T12:20:14.010Z,755.00
2024-04-18T12:21:14.100Z,758.00
2024-04-18T12:22:14.096Z,759.00
2024-04-18T12:23:14.157Z,754.00
2024-04-18T12:24:14.219Z,770.00
2024-04-18T12:25:14.239Z,787.00
2024-04-18T12:26:14.327Z,782.00
2024-04-18T12:27:14.356Z,787.00
2024-04-18T12:28:14.386Z,796.00
2024-04-18T12:29:14.460Z,791.00